createdAt,value
2019-04-05T00:00:06.946Z,92.10
2019-04-05T00:01:14.011Z,92.10
2019-04-05T00:02:19.067Z,92.00
2019-04-05T00:03:24.400Z,92.00
2019-04-05T00:04:29.463Z,92.00
2019-04-05T00:05:34.651Z,92.10
2019-04-05T00:06:39.720Z,92.10
2019-04-05T00:07:44.760Z,92.00
2019-04-05T00:08:49.982Z,91.90
2019-04-05T00:09:55.114Z,91.80
2019-04-05T00:11:00.879Z,91.80
2019-04-05T00:12:06.095Z,91.80
2019-04-05T00:13:11.338Z,92.00
2019-04-05T00:14:16.829Z,92.10
2019-04-05T00:15:22.027Z,92.20
2019-04-05T00:16:27.038Z,92.10
2019-04-05T00:17:32.189Z,92.00
2019-04-05T00:18:37.325Z,92.00
2019-04-05T00:19:42.465Z,92.00
2019-04-05T00:20:47.846Z,92.00
2019-04-05T00:21:53.116Z,91.90
2019-04-05T00:22:58.192Z,91.90
2019-04-05T00:24:03.353Z,91.90
2019-04-05T00:25:08.773Z,91.90
2019-04-05T00:26:14.332Z,91.80
2019-04-05T00:27:19.423Z,91.90
2019-04-05T00:28:24.467Z,91.80
2019-04-05T00:29:29.601Z,91.80
2019-04-05T00:30:34.699Z,91.90
2019-04-05T00:31:39.844Z,91.90
2019-04-05T00:32:45.057Z,91.80
2019-04-05T00:33:50.172Z,91.70
2019-04-05T00:34:55.380Z,91.80
2019-04-05T00:36:01.848Z,91.80
2019-04-05T00:37:06.944Z,91.80
2019-04-05T00:38:12.163Z,91.90
2019-04-05T00:39:18.356Z,91.90
2019-04-05T00:40:23.443Z,91.90
2019-04-05T00:41:28.541Z,91.90
2019-04-05T00:42:33.671Z,91.90
2019-04-05T00:43:38.705Z,91.90
2019-04-05T00:44:43.892Z,91.70
2019-04-05T00:45:49.042Z,91.70
2019-04-05T00:46:54.077Z,91.60
2019-04-05T00:47:59.200Z,91.50
2019-04-05T00:49:04.332Z,91.50
2019-04-05T00:50:09.827Z,91.40
2019-04-05T00:51:14.969Z,91.50
2019-04-05T00:52:20.070Z,91.50
2019-04-05T00:53:25.274Z,91.60
2019-04-05T00:54:30.805Z,91.50
2019-04-05T00:55:35.930Z,91.50
2019-04-05T00:56:40.971Z,91.40
2019-04-05T00:57:46.080Z,91.40
2019-04-05T00:58:51.206Z,91.40
2019-04-05T00:59:56.262Z,91.40
2019-04-05T01:01:01.747Z,91.30
2019-04-05T01:02:06.969Z,91.40
2019-04-05T01:03:13.254Z,91.30
2019-04-05T01:04:18.683Z,91.20
2019-04-05T01:05:23.914Z,91.30
2019-04-05T01:06:29.003Z,91.30
2019-04-05T01:07:34.118Z,91.40
2019-04-05T01:08:39.242Z,91.40
2019-04-05T01:09:46.461Z,91.40
2019-04-05T01:10:51.844Z,91.30
2019-04-05T01:11:57.011Z,91.30
2019-04-05T01:13:02.064Z,91.30
2019-04-05T01:14:07.179Z,91.30
2019-04-05T01:15:13.980Z,91.20
2019-04-05T01:16:19.120Z,91.10
2019-04-05T01:17:25.292Z,91.20
2019-04-05T01:18:30.672Z,91.30
2019-04-05T01:19:37.742Z,91.30
2019-04-05T01:20:45.841Z,91.20
2019-04-05T01:21:51.025Z,91.20
2019-04-05T01:22:57.658Z,91.20
2019-04-05T01:24:04.358Z,91.30
2019-04-05T01:25:09.570Z,91.40
2019-04-05T01:26:15.295Z,91.40
2019-04-05T01:27:22.129Z,91.40
2019-04-05T01:28:27.365Z,91.40
2019-04-05T01:29:32.482Z,91.30
2019-04-05T01:30:37.640Z,91.30
2019-04-05T01:31:42.747Z,91.30
2019-04-05T01:32:48.540Z,91.30
2019-04-05T01:33:53.654Z,91.30
2019-04-05T01:34:58.692Z,91.20
2019-04-05T01:36:03.866Z,91.20
2019-04-05T01:37:08.895Z,91.30
2019-04-05T01:38:14.064Z,91.40
2019-04-05T01:39:19.191Z,91.40
2019-04-05T01:40:26.264Z,91.40
2019-04-05T01:41:31.319Z,91.40
2019-04-05T01:42:37.507Z,91.50
2019-04-05T01:43:42.729Z,91.50
2019-04-05T01:44:47.830Z,91.30
2019-04-05T01:45:54.333Z,91.30
2019-04-05T01:46:59.725Z,91.20
2019-04-05T01:48:04.818Z,91.20
2019-04-05T01:49:09.976Z,91.10
2019-04-05T01:50:16.268Z,91.10
2019-04-05T01:51:21.451Z,91.10
2019-04-05T01:52:26.497Z,91.20
2019-04-05T01:53:31.623Z,91.20
2019-04-05T01:54:36.737Z,91.30
2019-04-05T01:55:41.820Z,91.20
2019-04-05T01:56:46.894Z,91.30
2019-04-05T01:57:52.380Z,91.30
2019-04-05T01:58:57.520Z,91.40
2019-04-05T02:00:02.633Z,91.40
2019-04-05T02:01:08.524Z,91.40
2019-04-05T02:02:13.724Z,91.60
2019-04-05T02:03:19.039Z,91.60
2019-04-05T02:04:24.389Z,91.50
2019-04-05T02:05:29.434Z,91.50
2019-04-05T02:06:34.521Z,91.50
2019-04-05T02:07:40.337Z,91.60
2019-04-05T02:08:45.493Z,91.50
2019-04-05T02:09:51.241Z,91.40
2019-04-05T02:10:56.429Z,91.40
2019-04-05T02:12:01.697Z,91.30
2019-04-05T02:13:06.830Z,91.40
2019-04-05T02:14:11.920Z,91.50
2019-04-05T02:15:26.756Z,91.50
2019-04-05T02:16:32.008Z,91.50
2019-04-05T02:17:37.366Z,91.50
2019-04-05T02:18:42.376Z,91.50
2019-04-05T02:19:47.425Z,91.50
2019-04-05T02:20:52.532Z,91.50
2019-04-05T02:21:57.665Z,91.50
2019-04-05T02:23:02.994Z,91.60
2019-04-05T02:24:08.277Z,91.50
2019-04-05T02:25:13.496Z,91.50
2019-04-05T02:26:18.626Z,91.60
2019-04-05T02:27:24.746Z,91.60
2019-04-05T02:28:30.048Z,91.50
2019-04-05T02:29:35.185Z,91.50
2019-04-05T02:30:40.365Z,91.60
2019-04-05T02:31:45.410Z,91.50
2019-04-05T02:32:50.859Z,91.50
2019-04-05T02:33:56.018Z,91.50
2019-04-05T02:35:01.140Z,91.60
2019-04-05T02:36:06.326Z,91.40
2019-04-05T02:37:11.511Z,91.40
2019-04-05T02:38:16.544Z,91.40
2019-04-05T02:39:21.648Z,91.40
2019-04-05T02:40:28.529Z,91.40
2019-04-05T02:41:33.936Z,91.40
2019-04-05T02:42:39.463Z,91.50
2019-04-05T02:43:46.834Z,91.50
2019-04-05T02:44:52.816Z,91.50
2019-04-05T02:45:58.893Z,91.50
2019-04-05T02:47:04.632Z,91.40
2019-04-05T02:48:12.133Z,91.50
2019-04-05T02:49:18.212Z,91.50
2019-04-05T02:50:26.518Z,91.40
2019-04-05T02:51:33.592Z,91.40
2019-04-05T02:52:39.133Z,91.30
2019-04-05T02:53:45.606Z,91.30
2019-04-05T02:54:52.146Z,91.40
2019-04-05T02:55:58.171Z,91.40
2019-04-05T02:57:03.922Z,91.50
2019-04-05T02:58:10.749Z,91.50
2019-04-05T02:59:18.038Z,91.50
2019-04-05T03:00:23.371Z,91.50
2019-04-05T03:01:29.542Z,91.50
2019-04-05T03:02:36.271Z,91.40
2019-04-05T03:03:41.904Z,91.50
2019-04-05T03:04:47.000Z,91.50
2019-04-05T03:05:52.562Z,91.50
2019-04-05T03:06:57.769Z,91.30
2019-04-05T03:08:03.014Z,91.30
2019-04-05T03:09:08.181Z,91.20
2019-04-05T03:10:50.117Z,91.10
2019-04-05T03:11:56.714Z,91.20
2019-04-05T03:13:02.312Z,91.30
2019-04-05T03:14:08.536Z,91.40
2019-04-05T03:15:13.749Z,91.50
2019-04-05T03:16:38.523Z,91.40
2019-04-05T03:17:29.577Z,91.40
2019-04-05T03:18:36.968Z,91.40
2019-04-05T03:19:43.404Z,91.40
2019-04-05T03:20:49.124Z,91.40
2019-04-05T03:22:02.567Z,91.40
2019-04-05T03:23:07.973Z,91.50
2019-04-05T03:24:17.909Z,91.40
2019-04-05T03:25:23.390Z,91.40
2019-04-05T03:26:31.707Z,91.40
2019-04-05T03:27:39.115Z,91.50
2019-04-05T03:28:47.278Z,91.50
2019-04-05T03:29:53.192Z,91.50
2019-04-05T03:30:58.247Z,91.50
2019-04-05T03:32:03.842Z,91.50
2019-04-05T03:33:10.074Z,91.40
2019-04-05T03:34:16.391Z,91.50
2019-04-05T03:35:21.639Z,91.50
2019-04-05T03:36:27.457Z,91.50
2019-04-05T03:37:32.483Z,91.50
2019-04-05T03:38:37.688Z,91.40
2019-04-05T03:39:43.193Z,91.40
2019-04-05T03:40:48.795Z,91.40
2019-04-05T03:41:54.863Z,91.40
2019-04-05T03:43:00.292Z,91.40
2019-04-05T03:44:06.386Z,91.30
2019-04-05T03:45:11.961Z,91.20
2019-04-05T03:46:17.138Z,91.30
2019-04-05T03:47:22.380Z,91.30
2019-04-05T03:48:27.749Z,91.20
2019-04-05T03:49:33.677Z,91.20
2019-04-05T03:50:38.873Z,91.10
2019-04-05T03:51:44.534Z,91.10
2019-04-05T03:52:49.664Z,91.20
2019-04-05T03:53:55.243Z,91.10
2019-04-05T03:55:00.413Z,91.10
2019-04-05T03:56:05.897Z,91.10
2019-04-05T03:57:11.043Z,91.10
2019-04-05T03:58:16.640Z,91.10
2019-04-05T03:59:21.658Z,91.20
2019-04-05T04:00:26.780Z,91.30
2019-04-05T04:01:32.389Z,91.40
2019-04-05T04:02:37.571Z,91.40
2019-04-05T04:03:42.718Z,91.40
2019-04-05T04:04:47.727Z,91.40
2019-04-05T04:05:53.160Z,91.60
2019-04-05T04:06:58.383Z,91.50
2019-04-05T04:08:03.434Z,91.60
2019-04-05T04:09:08.862Z,91.40
2019-04-05T04:10:18.240Z,91.50
2019-04-05T04:11:23.562Z,91.60
2019-04-05T04:12:28.624Z,91.60
2019-04-05T04:13:33.852Z,91.60
2019-04-05T04:14:39.517Z,91.60
2019-04-05T04:15:45.290Z,91.60
2019-04-05T04:16:50.541Z,91.60
2019-04-05T04:17:56.355Z,91.60
2019-04-05T04:19:02.015Z,91.50
2019-04-05T04:20:07.313Z,91.50
2019-04-05T04:21:24.585Z,91.40
2019-04-05T04:22:31.322Z,91.40
2019-04-05T04:23:36.475Z,91.40
2019-04-05T04:24:41.685Z,91.40
2019-04-05T04:25:46.938Z,91.30
2019-04-05T04:26:52.962Z,91.30
2019-04-05T04:27:58.777Z,91.40
2019-04-05T04:29:03.866Z,91.40
2019-04-05T04:30:08.999Z,91.40
2019-04-05T04:31:15.615Z,91.40
2019-04-05T04:32:20.815Z,91.50
2019-04-05T04:33:25.890Z,91.60
2019-04-05T04:34:31.591Z,91.60
2019-04-05T04:35:36.610Z,91.50
2019-04-05T04:36:42.252Z,91.40
2019-04-05T04:37:47.408Z,91.40
2019-04-05T04:38:52.617Z,91.40
2019-04-05T04:39:57.926Z,91.40
2019-04-05T04:41:03.074Z,91.40
2019-04-05T04:42:08.213Z,91.40
2019-04-05T04:43:13.316Z,91.40
2019-04-05T04:44:19.376Z,91.40
2019-04-05T04:45:24.790Z,91.40
2019-04-05T04:46:30.215Z,91.40
2019-04-05T04:47:35.644Z,91.50
2019-04-05T04:48:40.891Z,91.50
2019-04-05T04:49:46.233Z,91.50
2019-04-05T04:50:52.781Z,91.40
2019-04-05T04:51:58.166Z,91.40
2019-04-05T04:53:06.888Z,91.40
2019-04-05T04:54:12.015Z,91.50
2019-04-05T04:55:17.165Z,91.50
2019-04-05T04:56:22.653Z,91.50
2019-04-05T04:57:27.933Z,91.40
2019-04-05T04:58:33.037Z,91.30
2019-04-05T04:59:38.140Z,91.30
2019-04-05T05:00:43.610Z,91.30
2019-04-05T05:01:48.849Z,91.30
2019-04-05T05:02:54.284Z,91.30
2019-04-05T05:03:59.649Z,91.20
2019-04-05T05:05:07.189Z,91.20
2019-04-05T05:06:12.421Z,91.20
2019-04-05T05:07:17.793Z,91.20
2019-04-05T05:08:22.929Z,91.10
2019-04-05T05:09:28.283Z,91.10
2019-04-05T05:10:33.974Z,91.00
2019-04-05T05:11:39.424Z,91.00
2019-04-05T05:12:44.747Z,90.90
2019-04-05T05:13:49.947Z,91.00
2019-04-05T05:14:55.200Z,90.90
2019-04-05T05:16:00.892Z,90.90
2019-04-05T05:17:06.245Z,90.80
2019-04-05T05:18:11.379Z,90.80
2019-04-05T05:19:16.661Z,90.80
2019-04-05T05:20:21.945Z,90.80
2019-04-05T05:21:27.168Z,90.80
2019-04-05T05:22:32.641Z,90.60
2019-04-05T05:23:37.865Z,90.70
2019-04-05T05:24:43.217Z,90.70
2019-04-05T05:25:49.112Z,90.80
2019-04-05T05:26:54.429Z,90.80
2019-04-05T05:27:59.801Z,90.90
2019-04-05T05:29:05.323Z,90.90
2019-04-05T05:30:11.966Z,90.90
2019-04-05T05:31:17.065Z,90.90
2019-04-05T05:32:22.347Z,90.90
2019-04-05T05:33:27.636Z,90.90
2019-04-05T05:34:33.165Z,90.90
2019-04-05T05:35:38.388Z,90.80
2019-04-05T05:36:43.750Z,90.70
2019-04-05T05:37:48.986Z,90.70
2019-04-05T05:38:54.471Z,90.60
2019-04-05T05:39:59.557Z,90.50
2019-04-05T05:41:05.772Z,90.50
2019-04-05T05:42:10.894Z,90.50
2019-04-05T05:43:16.029Z,90.30
2019-04-05T05:44:21.140Z,90.40
2019-04-05T05:45:27.393Z,90.40
2019-04-05T05:46:32.552Z,90.40
2019-04-05T05:47:51.126Z,90.30
2019-04-05T05:48:45.687Z,90.40
2019-04-05T05:49:50.730Z,90.60
2019-04-05T05:50:56.073Z,90.50
2019-04-05T05:52:01.870Z,90.50
2019-04-05T05:53:06.912Z,90.50
2019-04-05T05:54:14.120Z,90.50
2019-04-05T05:55:18.936Z,90.40
2019-04-05T05:56:25.284Z,90.40
2019-04-05T05:57:30.349Z,90.30
2019-04-05T05:58:35.442Z,90.20
2019-04-05T05:59:40.717Z,90.10
2019-04-05T06:00:45.804Z,90.10
2019-04-05T06:01:50.922Z,90.10
2019-04-05T06:02:55.940Z,90.00
2019-04-05T06:04:01.326Z,90.00
2019-04-05T06:05:06.804Z,90.00
2019-04-05T06:06:11.860Z,90.00
2019-04-05T06:07:19.945Z,90.00
2019-04-05T06:08:23.677Z,89.90
2019-04-05T06:09:28.901Z,89.60
2019-04-05T06:10:33.917Z,89.50
2019-04-05T06:11:39.012Z,89.30
2019-04-05T06:12:44.179Z,89.20
2019-04-05T06:13:49.321Z,89.00
2019-04-05T06:14:54.713Z,88.70
2019-04-05T06:16:00.099Z,88.40
2019-04-05T06:17:05.668Z,88.10
2019-04-05T06:18:12.693Z,87.70
2019-04-05T06:19:17.557Z,87.50
2019-04-05T06:20:22.785Z,87.40
2019-04-05T06:21:27.986Z,87.50
2019-04-05T06:22:33.108Z,87.80
2019-04-05T06:23:38.259Z,87.30
2019-04-05T06:24:43.464Z,87.20
2019-04-05T06:25:48.561Z,86.90
2019-04-05T06:26:53.673Z,86.90
2019-04-05T06:27:59.911Z,86.60
2019-04-05T06:29:05.148Z,86.60
2019-04-05T06:30:11.039Z,86.50
2019-04-05T06:31:16.229Z,86.40
2019-04-05T06:32:21.338Z,86.20
2019-04-05T06:33:31.649Z,86.00
2019-04-05T06:34:33.273Z,85.90
2019-04-05T06:35:38.422Z,85.80
2019-04-05T06:36:43.513Z,85.70
2019-04-05T06:37:48.611Z,85.50
2019-04-05T06:38:53.728Z,85.40
2019-04-05T06:39:58.799Z,84.80
2019-04-05T06:41:03.954Z,84.50
2019-04-05T06:42:09.007Z,84.30
2019-04-05T06:43:14.122Z,83.90
2019-04-05T06:44:19.256Z,83.70
2019-04-05T06:45:24.321Z,84.00
2019-04-05T06:46:29.434Z,83.90
2019-04-05T06:47:34.463Z,83.90
2019-04-05T06:48:39.665Z,83.90
2019-04-05T06:49:44.703Z,83.70
2019-04-05T06:50:49.988Z,83.20
2019-04-05T06:51:55.037Z,83.20
2019-04-05T06:53:00.145Z,83.20
2019-04-05T06:54:05.165Z,83.20
2019-04-05T06:55:10.463Z,83.20
2019-04-05T06:56:15.505Z,83.40
2019-04-05T06:57:20.588Z,83.40
2019-04-05T06:58:28.854Z,83.50
2019-04-05T06:59:32.470Z,83.50
2019-04-05T07:00:37.582Z,83.30
2019-04-05T07:01:42.789Z,83.30
2019-04-05T07:02:47.895Z,83.20
2019-04-05T07:03:55.250Z,83.50
2019-04-05T07:05:00.115Z,83.60
2019-04-05T07:06:05.257Z,83.70
2019-04-05T07:07:10.365Z,83.90
2019-04-05T07:08:18.178Z,83.70
2019-04-05T07:09:22.358Z,83.30
2019-04-05T07:10:27.447Z,83.30
2019-04-05T07:11:32.617Z,83.70
2019-04-05T07:12:37.865Z,83.80
2019-04-05T07:13:42.905Z,84.00
2019-04-05T07:14:48.045Z,83.80
2019-04-05T07:15:53.230Z,83.80
2019-04-05T07:16:58.413Z,83.70
2019-04-05T07:18:03.584Z,83.60
2019-04-05T07:19:09.687Z,83.80
2019-04-05T07:20:14.804Z,83.70
2019-04-05T07:21:20.011Z,83.50
2019-04-05T07:22:37.037Z,83.30
2019-04-05T07:23:32.173Z,83.20
2019-04-05T07:24:37.281Z,83.20
2019-04-05T07:25:42.400Z,83.30
2019-04-05T07:26:48.630Z,83.30
2019-04-05T07:27:53.853Z,83.30
2019-04-05T07:29:00.078Z,83.10
2019-04-05T07:30:05.863Z,83.00
2019-04-05T07:31:10.921Z,82.70
2019-04-05T07:32:16.202Z,82.70
2019-04-05T07:33:21.325Z,82.80
2019-04-05T07:34:26.747Z,82.70
2019-04-05T07:35:33.616Z,82.40
2019-04-05T07:36:38.741Z,82.20
2019-04-05T07:37:44.050Z,81.90
2019-04-05T07:38:49.225Z,81.00
2019-04-05T07:39:54.470Z,81.00
2019-04-05T07:40:59.597Z,81.20
2019-04-05T07:42:04.780Z,81.20
2019-04-05T07:43:09.874Z,81.10
2019-04-05T07:44:15.035Z,80.80
2019-04-05T07:45:20.456Z,80.30
2019-04-05T07:46:25.749Z,80.20
2019-04-05T07:47:30.970Z,80.00
2019-04-05T07:48:44.720Z,79.80
2019-04-05T07:49:42.744Z,80.00
2019-04-05T07:50:47.944Z,80.40
2019-04-05T07:51:53.044Z,80.30
2019-04-05T07:52:58.221Z,80.70
2019-04-05T07:54:03.312Z,80.70
2019-04-05T07:55:09.347Z,80.50
2019-04-05T07:56:14.896Z,80.40
2019-04-05T07:57:20.237Z,80.30
2019-04-05T07:58:25.340Z,80.30
2019-04-05T07:59:30.414Z,80.10
2019-04-05T08:00:49.224Z,79.90
2019-04-05T08:01:54.359Z,79.70
2019-04-05T08:02:59.464Z,79.60
2019-04-05T08:04:04.763Z,79.60
2019-04-05T08:05:09.815Z,79.70
2019-04-05T08:06:15.842Z,79.70
2019-04-05T08:07:22.772Z,79.60
2019-04-05T08:08:44.071Z,79.40
2019-04-05T08:09:50.775Z,79.20
2019-04-05T08:10:58.225Z,78.30
2019-04-05T08:12:04.555Z,78.50
2019-04-05T08:13:09.801Z,78.80
2019-04-05T08:14:18.039Z,78.90
2019-04-05T08:15:23.598Z,78.80
2019-04-05T08:16:29.113Z,78.70
2019-04-05T08:17:34.323Z,78.70
2019-04-05T08:18:39.682Z,78.00
2019-04-05T08:19:44.841Z,77.80
2019-04-05T08:20:50.965Z,77.70
2019-04-05T08:21:56.128Z,77.50
2019-04-05T08:23:01.280Z,77.10
2019-04-05T08:24:06.432Z,76.80
2019-04-05T08:25:11.732Z,76.70
2019-04-05T08:26:17.135Z,76.60
2019-04-05T08:27:22.351Z,76.60
2019-04-05T08:28:29.705Z,76.20
2019-04-05T08:29:34.297Z,76.10
2019-04-05T08:30:39.479Z,75.40
2019-04-05T08:31:44.684Z,75.50
2019-04-05T08:32:49.919Z,75.40
2019-04-05T08:33:55.064Z,75.70
2019-04-05T08:35:01.256Z,75.70
2019-04-05T08:36:06.539Z,75.10
2019-04-05T08:37:11.745Z,74.80
2019-04-05T08:38:16.884Z,75.10
2019-04-05T08:39:22.230Z,75.30
2019-04-05T08:40:27.361Z,75.50
2019-04-05T08:41:32.464Z,75.00
2019-04-05T08:42:37.610Z,75.30
2019-04-05T08:43:42.744Z,75.50
2019-04-05T08:44:47.958Z,75.80
2019-04-05T08:45:54.291Z,76.10
2019-04-05T08:46:59.627Z,76.80
2019-04-05T08:48:04.704Z,76.10
2019-04-05T08:49:11.354Z,75.80
2019-04-05T08:50:16.841Z,75.90
2019-04-05T08:51:22.084Z,75.70
2019-04-05T08:52:27.263Z,75.50
2019-04-05T08:53:32.352Z,75.60
2019-04-05T08:54:37.504Z,75.50
2019-04-05T08:55:42.745Z,75.60
2019-04-05T08:56:47.895Z,75.30
2019-04-05T08:57:53.004Z,75.10
2019-04-05T08:58:58.523Z,74.90
2019-04-05T09:00:06.600Z,75.00
2019-04-05T09:01:11.871Z,75.10
2019-04-05T09:02:18.026Z,74.60
2019-04-05T09:03:23.147Z,74.60
2019-04-05T09:04:28.276Z,74.30
2019-04-05T09:05:33.675Z,74.00
2019-04-05T09:06:38.860Z,74.10
2019-04-05T09:07:44.037Z,74.00
2019-04-05T09:08:49.142Z,74.40
2019-04-05T09:09:54.276Z,74.40
2019-04-05T09:10:59.356Z,74.70
2019-04-05T09:12:04.593Z,74.70
2019-04-05T09:13:09.913Z,74.30
2019-04-05T09:14:15.447Z,73.80
2019-04-05T09:15:20.585Z,73.70
2019-04-05T09:16:25.857Z,73.40
2019-04-05T09:17:32.129Z,73.30
2019-04-05T09:18:37.206Z,72.70
2019-04-05T09:19:42.327Z,72.50
2019-04-05T09:20:47.390Z,72.10
2019-04-05T09:21:52.591Z,71.80
2019-04-05T09:22:57.649Z,71.80
2019-04-05T09:24:02.787Z,70.90
2019-04-05T09:25:07.935Z,70.20
2019-04-05T09:26:13.118Z,71.10
2019-04-05T09:27:19.484Z,71.00
2019-04-05T09:28:24.662Z,70.30
2019-04-05T09:29:30.091Z,70.40
2019-04-05T09:30:36.267Z,70.90
2019-04-05T09:31:41.381Z,70.10
2019-04-05T09:32:46.542Z,70.50
2019-04-05T09:33:51.683Z,71.00
2019-04-05T09:34:56.841Z,71.00
2019-04-05T09:36:02.057Z,69.80
2019-04-05T09:37:07.185Z,69.00
2019-04-05T09:38:12.244Z,68.10
2019-04-05T09:39:17.289Z,67.40
2019-04-05T09:40:22.487Z,67.50
2019-04-05T09:41:28.177Z,65.90
2019-04-05T09:42:33.313Z,65.70
2019-04-05T09:43:38.475Z,64.80
2019-04-05T09:44:43.534Z,64.30
2019-04-05T09:45:48.803Z,61.90
2019-04-05T09:46:53.936Z,60.60
2019-04-05T09:47:59.980Z,60.00
2019-04-05T09:49:05.268Z,58.00
2019-04-05T09:50:10.899Z,57.40
2019-04-05T09:51:16.148Z,56.60
2019-04-05T09:52:21.405Z,55.50
2019-04-05T09:53:26.565Z,53.80
2019-04-05T09:54:31.630Z,53.50
2019-04-05T09:55:36.747Z,52.70
2019-04-05T09:56:41.999Z,50.00
2019-04-05T09:57:47.154Z,47.80
2019-04-05T09:58:52.287Z,47.00
2019-04-05T09:59:57.338Z,46.10
2019-04-05T10:01:02.504Z,45.40
2019-04-05T10:02:07.781Z,44.50
2019-04-05T10:03:12.888Z,44.90
2019-04-05T10:04:18.072Z,44.60
2019-04-05T10:05:23.198Z,44.10
2019-04-05T10:06:28.379Z,43.90
2019-04-05T10:07:33.468Z,41.60
2019-04-05T10:08:38.633Z,38.10
2019-04-05T10:09:43.840Z,36.60
2019-04-05T10:10:49.513Z,35.40
2019-04-05T10:11:54.627Z,33.90
2019-04-05T10:12:59.864Z,33.60
2019-04-05T10:14:04.983Z,35.00
2019-04-05T10:15:11.381Z,34.50
2019-04-05T10:16:16.412Z,34.60
2019-04-05T10:17:21.586Z,34.70
2019-04-05T10:18:26.890Z,35.60
2019-04-05T10:19:32.089Z,37.20
2019-04-05T10:20:38.984Z,38.10
2019-04-05T10:21:44.171Z,40.20
2019-04-05T10:22:49.394Z,42.20
2019-04-05T10:23:54.614Z,42.10
2019-04-05T10:25:00.193Z,42.90
2019-04-05T10:26:08.245Z,44.30
2019-04-05T10:27:13.436Z,45.70
2019-04-05T10:28:18.573Z,46.30
2019-04-05T10:29:23.666Z,46.60
2019-04-05T10:30:28.823Z,46.70
2019-04-05T10:31:33.948Z,46.40
2019-04-05T10:32:39.172Z,47.20
2019-04-05T10:33:44.425Z,46.40
2019-04-05T10:34:49.701Z,45.90
2019-04-05T10:35:54.821Z,47.20
2019-04-05T10:36:59.952Z,47.80
2019-04-05T10:38:05.233Z,47.30
2019-04-05T10:39:10.764Z,47.30
2019-04-05T10:40:16.201Z,47.30
2019-04-05T10:41:23.003Z,47.20
2019-04-05T10:42:32.384Z,47.10
2019-04-05T10:43:38.494Z,46.90
2019-04-05T10:44:43.687Z,47.90
2019-04-05T10:45:49.037Z,47.80
2019-04-05T10:46:54.303Z,48.80
2019-04-05T10:47:59.485Z,50.00
2019-04-05T10:49:05.146Z,50.60
2019-04-05T10:50:11.454Z,51.50
2019-04-05T10:51:16.684Z,51.50
2019-04-05T10:52:21.820Z,51.30
2019-04-05T10:53:27.011Z,51.60
2019-04-05T10:54:32.168Z,51.70
2019-04-05T10:55:37.302Z,53.00
2019-04-05T10:56:42.542Z,53.40
2019-04-05T10:57:47.957Z,53.10
2019-04-05T10:58:53.161Z,53.50
2019-04-05T10:59:58.644Z,54.20
2019-04-05T11:01:03.868Z,54.70
2019-04-05T11:02:09.184Z,54.70
2019-04-05T11:03:16.026Z,55.30
2019-04-05T11:04:22.146Z,55.90
2019-04-05T11:05:28.338Z,56.80
2019-04-05T11:06:34.531Z,57.60
2019-04-05T11:07:40.063Z,58.50
2019-04-05T11:08:45.169Z,59.30
2019-04-05T11:09:53.083Z,59.90
2019-04-05T11:10:56.993Z,60.20
2019-04-05T11:12:02.185Z,60.80
2019-04-05T11:13:07.321Z,61.30
2019-04-05T11:14:13.824Z,62.10
2019-04-05T11:15:19.773Z,62.60
2019-04-05T11:16:24.800Z,62.80
2019-04-05T11:17:30.163Z,63.20
2019-04-05T11:18:35.325Z,63.70
2019-04-05T11:19:40.539Z,64.50
2019-04-05T11:20:48.913Z,64.70
2019-04-05T11:21:52.521Z,65.70
2019-04-05T11:22:57.709Z,66.40
2019-04-05T11:24:02.863Z,67.30
2019-04-05T11:25:08.662Z,67.60
2019-04-05T11:26:14.966Z,68.20
2019-04-05T11:27:20.050Z,69.20
2019-04-05T11:28:25.275Z,69.00
2019-04-05T11:29:30.503Z,68.90
2019-04-05T11:30:45.954Z,69.30
2019-04-05T11:31:56.913Z,68.80
2019-04-05T11:32:57.902Z,69.30
2019-04-05T11:34:03.002Z,69.10
2019-04-05T11:35:08.791Z,69.10
2019-04-05T11:36:14.397Z,68.40
2019-04-05T11:37:20.778Z,68.40
2019-04-05T11:38:26.986Z,68.40
2019-04-05T11:39:32.817Z,68.20
2019-04-05T11:40:38.650Z,68.50
2019-04-05T11:41:44.526Z,68.60
2019-04-05T11:42:50.306Z,69.00
2019-04-05T11:44:00.386Z,69.20
2019-04-05T11:45:05.550Z,69.20
2019-04-05T11:46:10.758Z,69.60
2019-04-05T11:47:17.206Z,69.60
2019-04-05T11:48:22.895Z,70.00
2019-04-05T11:49:29.946Z,69.70
2019-04-05T11:50:35.302Z,69.70
2019-04-05T11:51:43.051Z,70.60
2019-04-05T11:52:47.264Z,70.80
2019-04-05T11:53:52.505Z,70.90
2019-04-05T11:54:57.678Z,70.70
2019-04-05T11:56:13.985Z,71.20
2019-04-05T11:57:09.929Z,71.30
2019-04-05T11:58:15.539Z,71.50
2019-04-05T11:59:20.669Z,72.20
2019-04-05T12:00:36.302Z,72.90
2019-04-05T12:01:49.239Z,73.10
2019-04-05T12:02:58.216Z,74.10
2019-04-05T12:04:03.239Z,73.90
2019-04-05T12:05:09.040Z,74.00
2019-04-05T12:06:14.184Z,73.80
2019-04-05T12:07:21.756Z,73.50
2019-04-05T12:08:26.150Z,74.00
2019-04-05T12:09:31.282Z,73.10
2019-04-05T12:10:36.451Z,73.10
2019-04-05T12:11:41.610Z,73.70
2019-04-05T12:12:46.881Z,73.80
2019-04-05T12:13:52.371Z,73.70
2019-04-05T12:14:57.575Z,73.40
2019-04-05T12:16:05.627Z,72.90
2019-04-05T12:17:09.896Z,72.80
2019-04-05T12:18:19.145Z,72.60
2019-04-05T12:19:21.898Z,72.30
2019-04-05T12:20:27.361Z,71.90
2019-04-05T12:21:34.741Z,71.60
2019-04-05T12:22:40.401Z,71.50
2019-04-05T12:23:45.538Z,71.20
2019-04-05T12:24:50.708Z,70.90
2019-04-05T12:25:55.884Z,70.60
2019-04-05T12:27:04.430Z,71.00
2019-04-05T12:28:10.572Z,70.50
2019-04-05T12:29:14.840Z,70.60
2019-04-05T12:30:21.677Z,70.10
2019-04-05T12:31:27.390Z,70.20
2019-04-05T12:32:36.109Z,70.10
2019-04-05T12:33:39.373Z,70.20
2019-04-05T12:34:44.537Z,69.10
2019-04-05T12:35:52.547Z,68.80
2019-04-05T12:36:56.472Z,68.40
2019-04-05T12:38:01.578Z,68.70
2019-04-05T12:39:08.537Z,68.60
2019-04-05T12:40:15.194Z,68.70
2019-04-05T12:41:20.459Z,68.80
2019-04-05T12:42:25.909Z,68.60
2019-04-05T12:43:31.108Z,68.10
2019-04-05T12:44:36.335Z,68.20
2019-04-05T12:45:44.288Z,67.80
2019-04-05T12:46:48.224Z,67.80
2019-04-05T12:47:53.480Z,67.80
2019-04-05T12:48:58.616Z,67.80
2019-04-05T12:50:04.183Z,67.70
2019-04-05T12:51:09.351Z,67.50
2019-04-05T12:52:22.645Z,67.60
2019-04-05T12:53:21.440Z,68.00
2019-04-05T12:54:26.628Z,67.90
2019-04-05T12:55:31.991Z,67.90
2019-04-05T12:56:37.478Z,67.90
2019-04-05T12:57:42.598Z,68.00
2019-04-05T12:58:47.931Z,68.50
2019-04-05T12:59:55.768Z,68.40
2019-04-05T13:00:59.927Z,68.00
2019-04-05T13:02:05.112Z,68.20
2019-04-05T13:03:10.332Z,68.10
2019-04-05T13:04:15.495Z,68.50
2019-04-05T13:05:21.644Z,69.20
2019-04-05T13:06:27.067Z,68.80
2019-04-05T13:07:34.865Z,68.80
2019-04-05T13:08:39.058Z,68.40
2019-04-05T13:09:45.779Z,68.60
2019-04-05T13:10:51.243Z,68.70
2019-04-05T13:11:57.333Z,69.30
2019-04-05T13:13:02.745Z,69.60
2019-04-05T13:14:07.880Z,69.80
2019-04-05T13:15:16.988Z,69.70
2019-04-05T13:16:20.228Z,70.00
2019-04-05T13:17:25.334Z,70.50
2019-04-05T13:18:31.592Z,70.60
2019-04-05T13:19:37.062Z,70.80
2019-04-05T13:20:42.217Z,71.10
2019-04-05T13:21:47.329Z,71.50
2019-04-05T13:22:52.497Z,71.40
2019-04-05T13:23:57.741Z,71.20
2019-04-05T13:25:05.872Z,71.60
2019-04-05T13:26:12.288Z,71.70
2019-04-05T13:27:16.746Z,71.40
2019-04-05T13:28:21.956Z,71.60
2019-04-05T13:29:28.084Z,72.00
2019-04-05T13:30:33.259Z,72.10
2019-04-05T13:31:38.386Z,71.90
2019-04-05T13:32:44.621Z,72.00
2019-04-05T13:33:49.763Z,72.20
2019-04-05T13:34:56.589Z,72.20
2019-04-05T13:36:01.721Z,72.30
2019-04-05T13:37:19.311Z,72.50
2019-04-05T13:38:14.011Z,72.20
2019-04-05T13:39:19.168Z,72.20
2019-04-05T13:40:24.349Z,72.20
2019-04-05T13:41:31.638Z,72.20
2019-04-05T13:42:36.422Z,72.10
2019-04-05T13:43:41.516Z,72.30
2019-04-05T13:44:46.555Z,72.40
2019-04-05T13:45:51.693Z,72.50
2019-04-05T13:46:56.842Z,72.70
2019-04-05T13:48:02.185Z,73.30
2019-04-05T13:49:10.323Z,73.50
2019-04-05T13:50:14.404Z,73.50
2019-04-05T13:51:27.895Z,73.70
2019-04-05T13:52:26.402Z,74.00
2019-04-05T13:53:31.552Z,74.20
2019-04-05T13:54:38.356Z,73.80
2019-04-05T13:55:43.813Z,74.10
2019-04-05T13:56:48.855Z,74.30
2019-04-05T13:57:54.095Z,74.30
2019-04-05T13:58:59.247Z,74.00
2019-04-05T14:00:04.553Z,73.80
2019-04-05T14:01:09.778Z,73.50
2019-04-05T14:02:14.918Z,73.90
2019-04-05T14:03:20.921Z,74.60
2019-04-05T14:04:26.208Z,74.20
2019-04-05T14:05:31.374Z,74.80